sensor_id;sensor_type;location;lat;lon;timestamp;temperature;humidity
48998;DHT22;34807;51.456;7.244;2022-07-17T00:02:24;19.40;57.80
48998;DHT22;34807;51.456;7.244;2022-07-17T00:04:49;19.40;58.00
48998;DHT22;34807;51.456;7.244;2022-07-17T00:07:15;19.30;57.70
48998;DHT22;34807;51.456;7.244;2022-07-17T00:09:40;19.30;57.90
48998;DHT22;34807;51.456;7.244;2022-07-17T00:12:06;19.30;58.10
48998;DHT22;34807;51.456;7.244;2022-07-17T00:14:32;19.20;58.00
48998;DHT22;34807;51.456;7.244;2022-07-17T00:16:58;19.20;58.00
48998;DHT22;34807;51.456;7.244;2022-07-17T00:19:24;19.20;58.30
48998;DHT22;34807;51.456;7.244;2022-07-17T00:21:50;19.20;58.20
48998;DHT22;34807;51.456;7.244;2022-07-17T00:24:15;19.20;58.30
48998;DHT22;34807;51.456;7.244;2022-07-17T00:26:48;19.10;58.30
48998;DHT22;34807;51.456;7.244;2022-07-17T00:29:14;19.10;58.50
48998;DHT22;34807;51.456;7.244;2022-07-17T00:31:40;19.10;58.40
48998;DHT22;34807;51.456;7.244;2022-07-17T00:34:06;19.00;58.50
48998;DHT22;34807;51.456;7.244;2022-07-17T00:36:31;19.00;58.60
48998;DHT22;34807;51.456;7.244;2022-07-17T00:38:57;19.00;58.60
48998;DHT22;34807;51.456;7.244;2022-07-17T00:41:22;19.00;58.80
48998;DHT22;34807;51.456;7.244;2022-07-17T00:43:48;19.00;58.80
48998;DHT22;34807;51.456;7.244;2022-07-17T00:46:13;18.90;58.80
48998;DHT22;34807;51.456;7.244;2022-07-17T00:48:39;18.90;59.40
48998;DHT22;34807;51.456;7.244;2022-07-17T00:51:04;18.90;59.20
48998;DHT22;34807;51.456;7.244;2022-07-17T00:53:33;18.80;58.80
48998;DHT22;34807;51.456;7.244;2022-07-17T00:56:00;18.80;59.40
48998;DHT22;34807;51.456;7.244;2022-07-17T00:58:26;18.80;59.10
48998;DHT22;34807;51.456;7.244;2022-07-17T01:00:53;18.80;59.30
48998;DHT22;34807;51.456;7.244;2022-07-17T01:03:19;18.80;59.20
48998;DHT22;34807;51.456;7.244;2022-07-17T01:05:45;18.80;59.20
48998;DHT22;34807;51.456;7.244;2022-07-17T01:08:11;18.70;59.50
48998;DHT22;34807;51.456;7.244;2022-07-17T01:10:37;18.70;59.70
48998;DHT22;34807;51.456;7.244;2022-07-17T01:13:04;18.70;59.90
48998;DHT22;34807;51.456;7.244;2022-07-17T01:15:30;18.60;59.80
48998;DHT22;34807;51.456;7.244;2022-07-17T01:17:56;18.60;59.90
48998;DHT22;34807;51.456;7.244;2022-07-17T01:20:22;18.60;60.10
48998;DHT22;34807;51.456;7.244;2022-07-17T01:22:48;18.60;60.00
48998;DHT22;34807;51.456;7.244;2022-07-17T01:25:15;18.60;60.40
48998;DHT22;34807;51.456;7.244;2022-07-17T01:27:40;18.60;60.30
48998;DHT22;34807;51.456;7.244;2022-07-17T01:30:06;18.50;60.50
48998;DHT22;34807;51.456;7.244;2022-07-17T01:32:33;18.50;60.60
48998;DHT22;34807;51.456;7.244;2022-07-17T01:34:58;18.50;60.70
48998;DHT22;34807;51.456;7.244;2022-07-17T01:37:24;18.50;60.80
48998;DHT22;34807;51.456;7.244;2022-07-17T01:39:49;18.40;60.70
48998;DHT22;34807;51.456;7.244;2022-07-17T01:42:18;18.40;60.50
48998;DHT22;34807;51.456;7.244;2022-07-17T01:44:44;18.40;60.80
48998;DHT22;34807;51.456;7.244;2022-07-17T01:47:09;18.40;61.00
48998;DHT22;34807;51.456;7.244;2022-07-17T01:49:37;18.40;61.20
48998;DHT22;34807;51.456;7.244;2022-07-17T01:52:02;18.40;61.20
48998;DHT22;34807;51.456;7.244;2022-07-17T01:54:31;18.30;61.10
48998;DHT22;34807;51.456;7.244;2022-07-17T01:56:56;18.30;61.30
48998;DHT22;34807;51.456;7.244;2022-07-17T01:59:22;18.30;61.40
48998;DHT22;34807;51.456;7.244;2022-07-17T02:01:48;18.30;61.40
48998;DHT22;34807;51.456;7.244;2022-07-17T02:04:13;18.20;61.30
48998;DHT22;34807;51.456;7.244;2022-07-17T02:06:39;18.20;61.30
48998;DHT22;34807;51.456;7.244;2022-07-17T02:09:04;18.20;61.40
48998;DHT22;34807;51.456;7.244;2022-07-17T02:11:30;18.20;61.50
48998;DHT22;34807;51.456;7.244;2022-07-17T02:13:55;18.20;61.60
48998;DHT22;34807;51.456;7.244;2022-07-17T02:16:21;18.10;61.60
48998;DHT22;34807;51.456;7.244;2022-07-17T02:18:46;18.20;61.60
48998;DHT22;34807;51.456;7.244;2022-07-17T02:21:12;18.10;61.60
48998;DHT22;34807;51.456;7.244;2022-07-17T02:23:37;18.10;61.70
48998;DHT22;34807;51.456;7.244;2022-07-17T02:26:03;18.10;61.70
48998;DHT22;34807;51.456;7.244;2022-07-17T02:28:28;18.10;61.80
48998;DHT22;34807;51.456;7.244;2022-07-17T02:30:54;18.10;61.70
48998;DHT22;34807;51.456;7.244;2022-07-17T02:33:19;18.10;61.80
48998;DHT22;34807;51.456;7.244;2022-07-17T02:35:45;18.00;61.90
48998;DHT22;34807;51.456;7.244;2022-07-17T02:38:10;18.00;61.90
48998;DHT22;34807;51.456;7.244;2022-07-17T02:40:36;18.00;61.90
48998;DHT22;34807;51.456;7.244;2022-07-17T02:43:01;18.00;62.00
48998;DHT22;34807;51.456;7.244;2022-07-17T02:45:27;18.00;62.00
48998;DHT22;34807;51.456;7.244;2022-07-17T02:47:53;17.90;61.90
48998;DHT22;34807;51.456;7.244;2022-07-17T02:50:20;17.90;62.00
48998;DHT22;34807;51.456;7.244;2022-07-17T02:52:46;17.90;62.00
48998;DHT22;34807;51.456;7.244;2022-07-17T02:55:11;17.90;62.10
48998;DHT22;34807;51.456;7.244;2022-07-17T02:57:37;17.80;62.10
48998;DHT22;34807;51.456;7.244;2022-07-17T03:00:04;17.90;62.20
48998;DHT22;34807;51.456;7.244;2022-07-17T03:02:30;17.80;62.10
48998;DHT22;34807;51.456;7.244;2022-07-17T03:04:55;17.80;62.20
48998;DHT22;34807;51.456;7.244;2022-07-17T03:07:21;17.80;62.30
48998;DHT22;34807;51.456;7.244;2022-07-17T03:09:46;17.80;62.20
48998;DHT22;34807;51.456;7.244;2022-07-17T03:12:11;17.80;62.30
48998;DHT22;34807;51.456;7.244;2022-07-17T03:14:37;17.70;62.30
48998;DHT22;34807;51.456;7.244;2022-07-17T03:17:02;17.70;62.40
48998;DHT22;34807;51.456;7.244;2022-07-17T03:19:28;17.70;62.50
48998;DHT22;34807;51.456;7.244;2022-07-17T03:21:53;17.70;62.50
48998;DHT22;34807;51.456;7.244;2022-07-17T03:24:19;17.70;62.60
48998;DHT22;34807;51.456;7.244;2022-07-17T03:26:44;17.70;62.60
48998;DHT22;34807;51.456;7.244;2022-07-17T03:29:10;17.70;62.70
48998;DHT22;34807;51.456;7.244;2022-07-17T03:31:36;17.70;62.60
48998;DHT22;34807;51.456;7.244;2022-07-17T03:34:01;17.60;62.60
48998;DHT22;34807;51.456;7.244;2022-07-17T03:36:27;17.60;62.60
48998;DHT22;34807;51.456;7.244;2022-07-17T03:38:52;17.60;62.70
48998;DHT22;34807;51.456;7.244;2022-07-17T03:41:18;17.60;62.80
48998;DHT22;34807;51.456;7.244;2022-07-17T03:43:43;17.50;62.70
48998;DHT22;34807;51.456;7.244;2022-07-17T03:46:09;17.50;62.80
48998;DHT22;34807;51.456;7.244;2022-07-17T03:48:34;17.50;62.80
48998;DHT22;34807;51.456;7.244;2022-07-17T03:51:01;17.50;62.80
48998;DHT22;34807;51.456;7.244;2022-07-17T03:53:27;17.50;62.90
48998;DHT22;34807;51.456;7.244;2022-07-17T03:55:52;17.40;62.90
48998;DHT22;34807;51.456;7.244;2022-07-17T03:58:18;17.40;62.90
48998;DHT22;34807;51.456;7.244;2022-07-17T04:00:43;17.40;62.80
48998;DHT22;34807;51.456;7.244;2022-07-17T04:03:09;17.40;63.00
48998;DHT22;34807;51.456;7.244;2022-07-17T04:05:34;17.40;63.00
48998;DHT22;34807;51.456;7.244;2022-07-17T04:08:00;17.40;63.10
48998;DHT22;34807;51.456;7.244;2022-07-17T04:10:25;17.40;63.10
48998;DHT22;34807;51.456;7.244;2022-07-17T04:12:51;17.40;63.10
48998;DHT22;34807;51.456;7.244;2022-07-17T04:15:16;17.40;63.30
48998;DHT22;34807;51.456;7.244;2022-07-17T04:18:02;17.40;63.10
48998;DHT22;34807;51.456;7.244;2022-07-17T04:20:27;17.30;63.20
48998;DHT22;34807;51.456;7.244;2022-07-17T04:22:54;17.30;63.20
48998;DHT22;34807;51.456;7.244;2022-07-17T04:25:19;17.30;63.30
48998;DHT22;34807;51.456;7.244;2022-07-17T04:27:45;17.30;63.30
48998;DHT22;34807;51.456;7.244;2022-07-17T04:30:10;17.30;63.30
48998;DHT22;34807;51.456;7.244;2022-07-17T04:32:36;17.30;63.40
48998;DHT22;34807;51.456;7.244;2022-07-17T04:35:02;17.30;63.40
48998;DHT22;34807;51.456;7.244;2022-07-17T04:37:28;17.30;63.40
48998;DHT22;34807;51.456;7.244;2022-07-17T04:39:53;17.30;63.40
48998;DHT22;34807;51.456;7.244;2022-07-17T04:42:18;17.30;63.50
48998;DHT22;34807;51.456;7.244;2022-07-17T04:44:44;17.30;63.40
48998;DHT22;34807;51.456;7.244;2022-07-17T04:47:09;17.30;63.50
48998;DHT22;34807;51.456;7.244;2022-07-17T04:49:35;17.30;63.60
48998;DHT22;34807;51.456;7.244;2022-07-17T04:52:00;17.30;63.50
48998;DHT22;34807;51.456;7.244;2022-07-17T04:54:26;17.20;63.50
48998;DHT22;34807;51.456;7.244;2022-07-17T04:56:51;17.20;63.50
48998;DHT22;34807;51.456;7.244;2022-07-17T04:59:17;17.20;63.60
48998;DHT22;34807;51.456;7.244;2022-07-17T05:01:42;17.20;63.60
48998;DHT22;34807;51.456;7.244;2022-07-17T05:04:08;17.20;63.70
48998;DHT22;34807;51.456;7.244;2022-07-17T05:06:33;17.20;63.70
48998;DHT22;34807;51.456;7.244;2022-07-17T05:08:59;17.20;63.70
48998;DHT22;34807;51.456;7.244;2022-07-17T05:11:24;17.20;63.70
48998;DHT22;34807;51.456;7.244;2022-07-17T05:13:50;17.20;63.70
48998;DHT22;34807;51.456;7.244;2022-07-17T05:16:16;17.20;63.80
48998;DHT22;34807;51.456;7.244;2022-07-17T05:18:41;17.20;63.90
48998;DHT22;34807;51.456;7.244;2022-07-17T05:21:07;17.20;63.80
48998;DHT22;34807;51.456;7.244;2022-07-17T05:23:32;17.20;64.00
48998;DHT22;34807;51.456;7.244;2022-07-17T05:25:58;17.20;63.90
48998;DHT22;34807;51.456;7.244;2022-07-17T05:28:23;17.20;63.90
48998;DHT22;34807;51.456;7.244;2022-07-17T05:30:49;17.20;63.80
48998;DHT22;34807;51.456;7.244;2022-07-17T05:33:14;17.10;63.90
48998;DHT22;34807;51.456;7.244;2022-07-17T05:35:40;17.20;64.00
48998;DHT22;34807;51.456;7.244;2022-07-17T05:38:05;17.20;63.90
48998;DHT22;34807;51.456;7.244;2022-07-17T05:40:31;17.10;63.80
48998;DHT22;34807;51.456;7.244;2022-07-17T05:42:57;17.20;64.10
48998;DHT22;34807;51.456;7.244;2022-07-17T05:45:23;17.20;64.00
48998;DHT22;34807;51.456;7.244;2022-07-17T05:47:48;17.20;64.00
48998;DHT22;34807;51.456;7.244;2022-07-17T05:50:14;17.10;63.90
48998;DHT22;34807;51.456;7.244;2022-07-17T05:52:40;17.20;63.90
48998;DHT22;34807;51.456;7.244;2022-07-17T05:55:05;17.20;64.10
48998;DHT22;34807;51.456;7.244;2022-07-17T05:57:31;17.20;64.00
48998;DHT22;34807;51.456;7.244;2022-07-17T05:59:56;17.20;63.90
48998;DHT22;34807;51.456;7.244;2022-07-17T06:02:22;17.20;63.80
48998;DHT22;34807;51.456;7.244;2022-07-17T06:04:47;17.10;63.50
48998;DHT22;34807;51.456;7.244;2022-07-17T06:07:13;17.10;63.60
48998;DHT22;34807;51.456;7.244;2022-07-17T06:09:38;17.10;63.60
48998;DHT22;34807;51.456;7.244;2022-07-17T06:12:04;17.10;63.70
48998;DHT22;34807;51.456;7.244;2022-07-17T06:14:29;17.10;63.70
48998;DHT22;34807;51.456;7.244;2022-07-17T06:16:55;17.10;63.60
48998;DHT22;34807;51.456;7.244;2022-07-17T06:19:20;17.10;63.70
48998;DHT22;34807;51.456;7.244;2022-07-17T06:21:46;17.10;63.70
48998;DHT22;34807;51.456;7.244;2022-07-17T06:24:11;17.10;63.70
48998;DHT22;34807;51.456;7.244;2022-07-17T06:26:37;17.10;63.70
48998;DHT22;34807;51.456;7.244;2022-07-17T06:29:02;17.10;63.60
48998;DHT22;34807;51.456;7.244;2022-07-17T06:31:28;17.20;63.70
48998;DHT22;34807;51.456;7.244;2022-07-17T06:33:53;17.20;63.70
48998;DHT22;34807;51.456;7.244;2022-07-17T06:36:19;17.20;63.60
48998;DHT22;34807;51.456;7.244;2022-07-17T06:38:44;17.20;63.70
48998;DHT22;34807;51.456;7.244;2022-07-17T06:41:10;17.20;63.70
48998;DHT22;34807;51.456;7.244;2022-07-17T06:43:35;17.20;63.60
48998;DHT22;34807;51.456;7.244;2022-07-17T06:46:01;17.20;63.60
48998;DHT22;34807;51.456;7.244;2022-07-17T06:48:27;17.20;63.60
48998;DHT22;34807;51.456;7.244;2022-07-17T06:50:52;17.20;63.60
48998;DHT22;34807;51.456;7.244;2022-07-17T06:53:18;17.20;63.60
48998;DHT22;34807;51.456;7.244;2022-07-17T06:55:43;17.30;63.60
48998;DHT22;34807;51.456;7.244;2022-07-17T06:58:09;17.30;63.50
48998;DHT22;34807;51.456;7.244;2022-07-17T07:00:34;17.30;63.50
48998;DHT22;34807;51.456;7.244;2022-07-17T07:03:00;17.30;63.40
48998;DHT22;34807;51.456;7.244;2022-07-17T07:05:25;17.30;63.40
48998;DHT22;34807;51.456;7.244;2022-07-17T07:07:51;17.30;63.40
48998;DHT22;34807;51.456;7.244;2022-07-17T07:10:16;17.40;63.50
48998;DHT22;34807;51.456;7.244;2022-07-17T07:12:42;17.40;63.60
48998;DHT22;34807;51.456;7.244;2022-07-17T07:15:08;17.40;63.40
48998;DHT22;34807;51.456;7.244;2022-07-17T07:17:34;17.40;63.40
48998;DHT22;34807;51.456;7.244;2022-07-17T07:20:00;17.40;63.40
48998;DHT22;34807;51.456;7.244;2022-07-17T07:22:26;17.40;63.30
48998;DHT22;34807;51.456;7.244;2022-07-17T07:24:51;17.40;63.20
48998;DHT22;34807;51.456;7.244;2022-07-17T07:27:17;17.50;63.30
48998;DHT22;34807;51.456;7.244;2022-07-17T07:29:42;17.50;63.20
48998;DHT22;34807;51.456;7.244;2022-07-17T07:32:08;17.50;63.20
48998;DHT22;34807;51.456;7.244;2022-07-17T07:34:33;17.50;63.10
48998;DHT22;34807;51.456;7.244;2022-07-17T07:36:59;17.50;62.90
48998;DHT22;34807;51.456;7.244;2022-07-17T07:39:24;17.60;63.00
48998;DHT22;34807;51.456;7.244;2022-07-17T07:41:50;17.60;62.90
48998;DHT22;34807;51.456;7.244;2022-07-17T07:44:15;17.70;62.90
48998;DHT22;34807;51.456;7.244;2022-07-17T07:46:41;17.60;62.80
48998;DHT22;34807;51.456;7.244;2022-07-17T07:49:06;17.70;62.80
48998;DHT22;34807;51.456;7.244;2022-07-17T07:51:31;17.70;62.70
48998;DHT22;34807;51.456;7.244;2022-07-17T07:53:57;17.70;62.60
48998;DHT22;34807;51.456;7.244;2022-07-17T07:56:22;17.70;62.60
48998;DHT22;34807;51.456;7.244;2022-07-17T07:58:48;17.80;62.50
48998;DHT22;34807;51.456;7.244;2022-07-17T08:01:14;17.80;62.50
48998;DHT22;34807;51.456;7.244;2022-07-17T08:03:39;17.80;62.50
48998;DHT22;34807;51.456;7.244;2022-07-17T08:06:05;17.80;62.30
48998;DHT22;34807;51.456;7.244;2022-07-17T08:08:30;17.90;62.30
48998;DHT22;34807;51.456;7.244;2022-07-17T08:10:56;17.90;62.20
48998;DHT22;34807;51.456;7.244;2022-07-17T08:13:21;17.90;62.20
48998;DHT22;34807;51.456;7.244;2022-07-17T08:15:47;17.90;62.10
48998;DHT22;34807;51.456;7.244;2022-07-17T08:18:12;18.00;62.10
48998;DHT22;34807;51.456;7.244;2022-07-17T08:20:38;18.00;61.90
48998;DHT22;34807;51.456;7.244;2022-07-17T08:23:03;18.00;61.90
48998;DHT22;34807;51.456;7.244;2022-07-17T08:25:29;18.00;61.70
48998;DHT22;34807;51.456;7.244;2022-07-17T08:27:55;18.00;61.60
48998;DHT22;34807;51.456;7.244;2022-07-17T08:30:20;18.10;61.60
48998;DHT22;34807;51.456;7.244;2022-07-17T08:32:46;18.10;61.40
48998;DHT22;34807;51.456;7.244;2022-07-17T08:35:11;18.20;61.40
48998;DHT22;34807;51.456;7.244;2022-07-17T08:37:44;18.20;61.40
48998;DHT22;34807;51.456;7.244;2022-07-17T08:40:15;18.20;61.30
48998;DHT22;34807;51.456;7.244;2022-07-17T08:42:41;18.30;61.30
48998;DHT22;34807;51.456;7.244;2022-07-17T08:45:08;18.30;61.30
48998;DHT22;34807;51.456;7.244;2022-07-17T08:47:34;18.30;61.20
48998;DHT22;34807;51.456;7.244;2022-07-17T08:50:00;18.30;61.10
48998;DHT22;34807;51.456;7.244;2022-07-17T08:52:27;18.40;61.20
48998;DHT22;34807;51.456;7.244;2022-07-17T08:54:52;18.40;61.00
48998;DHT22;34807;51.456;7.244;2022-07-17T08:57:18;18.40;60.90
48998;DHT22;34807;51.456;7.244;2022-07-17T08:59:46;18.50;60.90
48998;DHT22;34807;51.456;7.244;2022-07-17T09:02:12;18.50;60.80
48998;DHT22;34807;51.456;7.244;2022-07-17T09:04:38;18.60;60.80
48998;DHT22;34807;51.456;7.244;2022-07-17T09:07:04;18.60;60.60
48998;DHT22;34807;51.456;7.244;2022-07-17T09:09:30;18.60;60.70
48998;DHT22;34807;51.456;7.244;2022-07-17T09:11:57;18.60;60.60
48998;DHT22;34807;51.456;7.244;2022-07-17T09:14:24;18.70;60.50
48998;DHT22;34807;51.456;7.244;2022-07-17T09:16:50;18.70;60.50
48998;DHT22;34807;51.456;7.244;2022-07-17T09:21:51;18.80;60.30
48998;DHT22;34807;51.456;7.244;2022-07-17T09:24:16;18.80;60.10
48998;DHT22;34807;51.456;7.244;2022-07-17T09:26:45;18.90;60.10
48998;DHT22;34807;51.456;7.244;2022-07-17T09:29:11;18.90;60.00
48998;DHT22;34807;51.456;7.244;2022-07-17T09:31:39;19.00;60.00
48998;DHT22;34807;51.456;7.244;2022-07-17T09:34:05;19.00;59.80
48998;DHT22;34807;51.456;7.244;2022-07-17T09:36:41;19.10;59.70
48998;DHT22;34807;51.456;7.244;2022-07-17T09:39:06;19.10;59.70
48998;DHT22;34807;51.456;7.244;2022-07-17T09:41:32;19.20;59.70
48998;DHT22;34807;51.456;7.244;2022-07-17T09:43:59;19.20;59.60
48998;DHT22;34807;51.456;7.244;2022-07-17T09:46:26;19.30;59.50
48998;DHT22;34807;51.456;7.244;2022-07-17T09:48:53;19.30;59.40
48998;DHT22;34807;51.456;7.244;2022-07-17T09:53:45;19.40;59.40
48998;DHT22;34807;51.456;7.244;2022-07-17T09:56:14;19.40;59.30
48998;DHT22;34807;51.456;7.244;2022-07-17T09:58:40;19.50;59.20
48998;DHT22;34807;51.456;7.244;2022-07-17T10:01:08;19.50;59.10
48998;DHT22;34807;51.456;7.244;2022-07-17T10:03:33;19.60;59.00
48998;DHT22;34807;51.456;7.244;2022-07-17T10:06:00;19.60;59.00
48998;DHT22;34807;51.456;7.244;2022-07-17T10:08:26;19.70;58.90
48998;DHT22;34807;51.456;7.244;2022-07-17T10:10:52;19.70;58.90
48998;DHT22;34807;51.456;7.244;2022-07-17T10:13:18;19.80;59.40
48998;DHT22;34807;51.456;7.244;2022-07-17T10:15:44;19.90;58.90
48998;DHT22;34807;51.456;7.244;2022-07-17T10:18:10;20.00;58.80
48998;DHT22;34807;51.456;7.244;2022-07-17T10:20:36;20.00;58.70
48998;DHT22;34807;51.456;7.244;2022-07-17T10:23:11;20.10;58.70
48998;DHT22;34807;51.456;7.244;2022-07-17T10:25:36;20.10;58.70
48998;DHT22;34807;51.456;7.244;2022-07-17T10:28:02;20.20;58.70
48998;DHT22;34807;51.456;7.244;2022-07-17T10:30:28;20.30;58.80
48998;DHT22;34807;51.456;7.244;2022-07-17T10:32:57;20.40;58.70
48998;DHT22;34807;51.456;7.244;2022-07-17T10:35:24;20.40;58.80
48998;DHT22;34807;51.456;7.244;2022-07-17T10:37:49;20.50;58.80
48998;DHT22;34807;51.456;7.244;2022-07-17T10:45:13;20.70;59.30
48998;DHT22;34807;51.456;7.244;2022-07-17T10:48:39;20.80;58.70
48998;DHT22;34807;51.456;7.244;2022-07-17T10:50:36;20.90;58.60
48998;DHT22;34807;51.456;7.244;2022-07-17T10:53:09;21.10;58.50
48998;DHT22;34807;51.456;7.244;2022-07-17T10:55:37;21.20;58.20
48998;DHT22;34807;51.456;7.244;2022-07-17T10:58:03;21.30;58.50
48998;DHT22;34807;51.456;7.244;2022-07-17T11:00:29;21.40;58.40
48998;DHT22;34807;51.456;7.244;2022-07-17T11:02:54;21.50;58.50
48998;DHT22;34807;51.456;7.244;2022-07-17T11:05:20;21.60;58.40
48998;DHT22;34807;51.456;7.244;2022-07-17T11:07:50;21.80;58.40
48998;DHT22;34807;51.456;7.244;2022-07-17T11:10:15;21.80;58.40
48998;DHT22;34807;51.456;7.244;2022-07-17T11:12:41;22.00;58.60
48998;DHT22;34807;51.456;7.244;2022-07-17T11:15:07;22.10;58.30
48998;DHT22;34807;51.456;7.244;2022-07-17T11:17:32;22.20;58.40
48998;DHT22;34807;51.456;7.244;2022-07-17T11:19:58;22.30;58.30
48998;DHT22;34807;51.456;7.244;2022-07-17T11:22:24;22.40;58.40
48998;DHT22;34807;51.456;7.244;2022-07-17T11:24:49;22.60;58.20
48998;DHT22;34807;51.456;7.244;2022-07-17T11:29:44;22.70;58.00
48998;DHT22;34807;51.456;7.244;2022-07-17T11:32:09;22.80;58.10
48998;DHT22;34807;51.456;7.244;2022-07-17T11:34:35;22.90;57.90
48998;DHT22;34807;51.456;7.244;2022-07-17T11:37:01;22.90;57.70
48998;DHT22;34807;51.456;7.244;2022-07-17T11:39:35;23.10;57.60
48998;DHT22;34807;51.456;7.244;2022-07-17T11:42:01;23.20;57.50
48998;DHT22;34807;51.456;7.244;2022-07-17T11:44:27;23.30;57.40
48998;DHT22;34807;51.456;7.244;2022-07-17T11:46:52;23.40;57.70
48998;DHT22;34807;51.456;7.244;2022-07-17T11:49:25;23.40;57.60
48998;DHT22;34807;51.456;7.244;2022-07-17T11:51:51;23.50;57.50
48998;DHT22;34807;51.456;7.244;2022-07-17T11:54:16;23.60;57.50
48998;DHT22;34807;51.456;7.244;2022-07-17T11:56:43;23.70;57.40
48998;DHT22;34807;51.456;7.244;2022-07-17T11:59:22;23.70;57.40
48998;DHT22;34807;51.456;7.244;2022-07-17T12:01:48;23.90;57.50
48998;DHT22;34807;51.456;7.244;2022-07-17T12:04:13;23.90;57.30
48998;DHT22;34807;51.456;7.244;2022-07-17T12:06:40;24.00;57.20
48998;DHT22;34807;51.456;7.244;2022-07-17T12:09:05;24.10;57.20
48998;DHT22;34807;51.456;7.244;2022-07-17T12:11:31;24.20;57.20
48998;DHT22;34807;51.456;7.244;2022-07-17T12:14:04;24.20;57.10
48998;DHT22;34807;51.456;7.244;2022-07-17T12:16:32;24.30;57.10
48998;DHT22;34807;51.456;7.244;2022-07-17T12:19:01;24.40;57.10
48998;DHT22;34807;51.456;7.244;2022-07-17T12:21:29;24.50;57.40
48998;DHT22;34807;51.456;7.244;2022-07-17T12:24:04;24.50;57.30
48998;DHT22;34807;51.456;7.244;2022-07-17T12:26:30;24.60;57.20
48998;DHT22;34807;51.456;7.244;2022-07-17T12:28:55;24.70;57.20
48998;DHT22;34807;51.456;7.244;2022-07-17T12:31:21;24.70;57.30
48998;DHT22;34807;51.456;7.244;2022-07-17T12:33:49;24.80;57.30
48998;DHT22;34807;51.456;7.244;2022-07-17T12:36:15;24.90;57.10
48998;DHT22;34807;51.456;7.244;2022-07-17T12:38:41;25.00;57.30
48998;DHT22;34807;51.456;7.244;2022-07-17T12:41:06;25.00;57.30
48998;DHT22;34807;51.456;7.244;2022-07-17T12:43:32;25.00;57.00
48998;DHT22;34807;51.456;7.244;2022-07-17T12:45:57;25.10;57.20
48998;DHT22;34807;51.456;7.244;2022-07-17T12:48:23;25.20;56.80
48998;DHT22;34807;51.456;7.244;2022-07-17T12:50:48;25.30;57.40
48998;DHT22;34807;51.456;7.244;2022-07-17T12:53:14;25.30;57.10
48998;DHT22;34807;51.456;7.244;2022-07-17T12:55:39;25.40;56.90
48998;DHT22;34807;51.456;7.244;2022-07-17T12:58:05;25.50;56.80
48998;DHT22;34807;51.456;7.244;2022-07-17T13:00:31;25.60;56.80
48998;DHT22;34807;51.456;7.244;2022-07-17T13:02:57;25.60;56.80
48998;DHT22;34807;51.456;7.244;2022-07-17T13:05:22;25.70;56.70
48998;DHT22;34807;51.456;7.244;2022-07-17T13:07:48;25.80;56.60
48998;DHT22;34807;51.456;7.244;2022-07-17T13:10:14;25.80;56.70
48998;DHT22;34807;51.456;7.244;2022-07-17T13:12:40;25.90;56.60
48998;DHT22;34807;51.456;7.244;2022-07-17T13:15:05;26.00;56.50
48998;DHT22;34807;51.456;7.244;2022-07-17T13:17:31;26.00;56.40
48998;DHT22;34807;51.456;7.244;2022-07-17T13:19:56;26.10;56.20
48998;DHT22;34807;51.456;7.244;2022-07-17T13:22:22;26.20;56.20
48998;DHT22;34807;51.456;7.244;2022-07-17T13:24:47;26.20;56.40
48998;DHT22;34807;51.456;7.244;2022-07-17T13:27:13;26.30;56.20
48998;DHT22;34807;51.456;7.244;2022-07-17T13:29:38;26.40;57.00
48998;DHT22;34807;51.456;7.244;2022-07-17T13:32:04;26.40;56.00
48998;DHT22;34807;51.456;7.244;2022-07-17T13:34:30;26.50;56.10
48998;DHT22;34807;51.456;7.244;2022-07-17T13:36:55;26.50;55.80
48998;DHT22;34807;51.456;7.244;2022-07-17T13:39:21;26.60;56.00
48998;DHT22;34807;51.456;7.244;2022-07-17T13:41:46;26.70;56.00
48998;DHT22;34807;51.456;7.244;2022-07-17T13:44:13;26.70;55.30
48998;DHT22;34807;51.456;7.244;2022-07-17T13:46:38;26.70;55.90
48998;DHT22;34807;51.456;7.244;2022-07-17T13:49:04;26.70;56.20
48998;DHT22;34807;51.456;7.244;2022-07-17T13:51:30;26.80;56.00
48998;DHT22;34807;51.456;7.244;2022-07-17T13:53:56;26.90;55.90
48998;DHT22;34807;51.456;7.244;2022-07-17T13:56:22;27.00;55.80
48998;DHT22;34807;51.456;7.244;2022-07-17T13:58:48;27.00;55.70
48998;DHT22;34807;51.456;7.244;2022-07-17T14:01:14;27.10;55.80
48998;DHT22;34807;51.456;7.244;2022-07-17T14:03:39;27.10;55.50
48998;DHT22;34807;51.456;7.244;2022-07-17T14:06:05;27.20;55.70
48998;DHT22;34807;51.456;7.244;2022-07-17T14:08:30;27.20;55.50
48998;DHT22;34807;51.456;7.244;2022-07-17T14:10:56;27.30;55.20
48998;DHT22;34807;51.456;7.244;2022-07-17T14:13:22;27.30;54.90
48998;DHT22;34807;51.456;7.244;2022-07-17T14:15:47;27.30;54.70
48998;DHT22;34807;51.456;7.244;2022-07-17T14:18:13;27.40;54.90
48998;DHT22;34807;51.456;7.244;2022-07-17T14:20:38;27.40;54.90
48998;DHT22;34807;51.456;7.244;2022-07-17T14:23:04;27.50;54.80
48998;DHT22;34807;51.456;7.244;2022-07-17T14:25:29;27.50;54.50
48998;DHT22;34807;51.456;7.244;2022-07-17T14:27:55;27.50;54.50
48998;DHT22;34807;51.456;7.244;2022-07-17T14:30:20;27.60;54.30
48998;DHT22;34807;51.456;7.244;2022-07-17T14:32:46;27.60;54.40
48998;DHT22;34807;51.456;7.244;2022-07-17T14:35:11;27.60;54.00
48998;DHT22;34807;51.456;7.244;2022-07-17T14:37:37;27.70;50.90
48998;DHT22;34807;51.456;7.244;2022-07-17T14:40:03;27.70;49.60
48998;DHT22;34807;51.456;7.244;2022-07-17T14:42:28;27.70;49.70
48998;DHT22;34807;51.456;7.244;2022-07-17T14:44:54;27.70;47.90
48998;DHT22;34807;51.456;7.244;2022-07-17T14:47:19;27.80;48.00
48998;DHT22;34807;51.456;7.244;2022-07-17T14:49:45;27.80;48.30
48998;DHT22;34807;51.456;7.244;2022-07-17T14:52:11;27.90;48.20
48998;DHT22;34807;51.456;7.244;2022-07-17T14:54:36;28.00;48.20
48998;DHT22;34807;51.456;7.244;2022-07-17T14:57:02;28.00;47.80
48998;DHT22;34807;51.456;7.244;2022-07-17T14:59:28;28.00;47.30
48998;DHT22;34807;51.456;7.244;2022-07-17T15:01:53;28.00;46.10
48998;DHT22;34807;51.456;7.244;2022-07-17T15:04:19;28.00;45.30
48998;DHT22;34807;51.456;7.244;2022-07-17T15:06:44;28.00;44.00
48998;DHT22;34807;51.456;7.244;2022-07-17T15:09:10;28.10;44.30
48998;DHT22;34807;51.456;7.244;2022-07-17T15:11:36;28.10;44.00
48998;DHT22;34807;51.456;7.244;2022-07-17T15:14:01;28.20;44.60
48998;DHT22;34807;51.456;7.244;2022-07-17T15:16:27;28.30;45.20
48998;DHT22;34807;51.456;7.244;2022-07-17T15:18:52;28.40;45.80
48998;DHT22;34807;51.456;7.244;2022-07-17T15:21:18;28.40;46.00
48998;DHT22;34807;51.456;7.244;2022-07-17T15:23:43;28.30;46.00
48998;DHT22;34807;51.456;7.244;2022-07-17T15:26:09;28.30;44.70
48998;DHT22;34807;51.456;7.244;2022-07-17T15:28:34;28.40;45.10
48998;DHT22;34807;51.456;7.244;2022-07-17T15:31:00;28.50;45.90
48998;DHT22;34807;51.456;7.244;2022-07-17T15:33:25;28.60;45.90
48998;DHT22;34807;51.456;7.244;2022-07-17T15:35:51;28.70;45.60